sensor_id;sensor_type;location;lat;lon;timestamp;P1;durP1;ratioP1;P2;durP2;ratioP2
43809;SDS011;29440;48.208;11.162;2022-12-16T00:01:04;37.92;;;12.55;;
43809;SDS011;29440;48.208;11.162;2022-12-16T00:03:32;40.47;;;11.32;;
43809;SDS011;29440;48.208;11.162;2022-12-16T00:05:58;30.98;;;12.57;;
43809;SDS011;29440;48.208;11.162;2022-12-16T00:08:24;30.90;;;11.60;;
43809;SDS011;29440;48.208;11.162;2022-12-16T00:10:49;37.58;;;11.80;;
43809;SDS011;29440;48.208;11.162;2022-12-16T00:13:20;29.65;;;12.50;;
43809;SDS011;29440;48.208;11.162;2022-12-16T00:15:47;32.40;;;10.90;;
43809;SDS011;29440;48.208;11.162;2022-12-16T00:18:13;34.88;;;12.32;;
43809;SDS011;29440;48.208;11.162;2022-12-16T00:20:43;36.50;;;12.85;;
43809;SDS011;29440;48.208;11.162;2022-12-16T00:23:09;31.73;;;11.23;;
43809;SDS011;29440;48.208;11.162;2022-12-16T00:25:35;36.97;;;12.15;;
43809;SDS011;29440;48.208;11.162;2022-12-16T00:28:00;29.88;;;11.45;;
43809;SDS011;29440;48.208;11.162;2022-12-16T00:30:26;32.47;;;11.82;;
43809;SDS011;29440;48.208;11.162;2022-12-16T00:32:51;33.22;;;12.13;;
43809;SDS011;29440;48.208;11.162;2022-12-16T00:35:17;34.22;;;11.82;;
43809;SDS011;29440;48.208;11.162;2022-12-16T00:37:42;31.92;;;12.43;;
43809;SDS011;29440;48.208;11.162;2022-12-16T00:40:11;30.88;;;11.77;;
43809;SDS011;29440;48.208;11.162;2022-12-16T00:42:36;33.13;;;12.60;;
43809;SDS011;29440;48.208;11.162;2022-12-16T00:45:02;35.22;;;12.68;;
43809;SDS011;29440;48.208;11.162;2022-12-16T00:47:28;40.80;;;13.60;;
43809;SDS011;29440;48.208;11.162;2022-12-16T00:49:54;32.15;;;12.65;;
43809;SDS011;29440;48.208;11.162;2022-12-16T00:52:19;36.75;;;12.70;;
43809;SDS011;29440;48.208;11.162;2022-12-16T00:54:45;39.45;;;13.23;;
43809;SDS011;29440;48.208;11.162;2022-12-16T00:57:11;30.88;;;12.52;;
43809;SDS011;29440;48.208;11.162;2022-12-16T00:59:36;33.75;;;13.30;;
43809;SDS011;29440;48.208;11.162;2022-12-16T01:02:02;34.42;;;12.55;;
43809;SDS011;29440;48.208;11.162;2022-12-16T01:04:28;33.38;;;12.00;;
43809;SDS011;29440;48.208;11.162;2022-12-16T01:06:53;32.38;;;12.48;;
43809;SDS011;29440;48.208;11.162;2022-12-16T01:09:19;33.83;;;12.52;;
43809;SDS011;29440;48.208;11.162;2022-12-16T01:11:45;40.53;;;13.23;;
43809;SDS011;29440;48.208;11.162;2022-12-16T01:14:11;34.60;;;13.20;;
43809;SDS011;29440;48.208;11.162;2022-12-16T01:16:37;35.20;;;13.50;;
43809;SDS011;29440;48.208;11.162;2022-12-16T01:19:02;34.65;;;13.52;;
43809;SDS011;29440;48.208;11.162;2022-12-16T01:21:28;38.58;;;14.05;;
43809;SDS011;29440;48.208;11.162;2022-12-16T01:23:54;38.72;;;13.45;;
43809;SDS011;29440;48.208;11.162;2022-12-16T01:26:19;37.75;;;12.63;;
43809;SDS011;29440;48.208;11.162;2022-12-16T01:28:46;38.85;;;14.57;;
43809;SDS011;29440;48.208;11.162;2022-12-16T01:31:13;38.55;;;14.20;;
43809;SDS011;29440;48.208;11.162;2022-12-16T01:33:40;38.22;;;14.23;;
43809;SDS011;29440;48.208;11.162;2022-12-16T01:36:06;35.03;;;13.70;;
43809;SDS011;29440;48.208;11.162;2022-12-16T01:38:33;30.50;;;13.30;;
43809;SDS011;29440;48.208;11.162;2022-12-16T01:40:59;28.80;;;12.25;;
43809;SDS011;29440;48.208;11.162;2022-12-16T01:43:26;28.95;;;13.45;;
43809;SDS011;29440;48.208;11.162;2022-12-16T01:45:58;23.70;;;11.30;;
43809;SDS011;29440;48.208;11.162;2022-12-16T01:48:32;28.55;;;13.05;;
43809;SDS011;29440;48.208;11.162;2022-12-16T01:51:12;26.98;;;12.60;;
43809;SDS011;29440;48.208;11.162;2022-12-16T01:53:45;29.27;;;13.70;;
43809;SDS011;29440;48.208;11.162;2022-12-16T01:56:14;31.75;;;14.35;;
43809;SDS011;29440;48.208;11.162;2022-12-16T01:58:41;31.00;;;14.50;;
43809;SDS011;29440;48.208;11.162;2022-12-16T02:01:07;29.50;;;13.70;;
43809;SDS011;29440;48.208;11.162;2022-12-16T02:03:34;32.13;;;13.35;;
43809;SDS011;29440;48.208;11.162;2022-12-16T02:06:01;29.25;;;14.57;;
43809;SDS011;29440;48.208;11.162;2022-12-16T02:08:29;33.75;;;14.85;;
43809;SDS011;29440;48.208;11.162;2022-12-16T02:10:59;37.50;;;15.57;;
43809;SDS011;29440;48.208;11.162;2022-12-16T02:13:51;36.70;;;15.13;;
43809;SDS011;29440;48.208;11.162;2022-12-16T02:16:50;32.10;;;14.70;;
43809;SDS011;29440;48.208;11.162;2022-12-16T02:38:58;36.90;;;15.50;;
43809;SDS011;29440;48.208;11.162;2022-12-16T02:41:41;31.58;;;12.15;;
43809;SDS011;29440;48.208;11.162;2022-12-16T02:44:26;35.90;;;14.95;;
43809;SDS011;29440;48.208;11.162;2022-12-16T02:46:59;35.88;;;16.02;;
43809;SDS011;29440;48.208;11.162;2022-12-16T02:51:50;40.30;;;14.48;;
43809;SDS011;29440;48.208;11.162;2022-12-16T02:54:17;39.45;;;17.02;;
43809;SDS011;29440;48.208;11.162;2022-12-16T02:56:48;39.90;;;15.55;;
43809;SDS011;29440;48.208;11.162;2022-12-16T02:59:27;41.20;;;16.75;;
43809;SDS011;29440;48.208;11.162;2022-12-16T03:02:15;35.72;;;14.55;;
43809;SDS011;29440;48.208;11.162;2022-12-16T03:07:28;42.42;;;16.63;;
43809;SDS011;29440;48.208;11.162;2022-12-16T03:09:57;41.85;;;15.00;;
43809;SDS011;29440;48.208;11.162;2022-12-16T03:12:24;39.60;;;16.52;;
43809;SDS011;29440;48.208;11.162;2022-12-16T03:14:51;39.15;;;15.52;;
43809;SDS011;29440;48.208;11.162;2022-12-16T03:17:18;37.63;;;15.38;;
43809;SDS011;29440;48.208;11.162;2022-12-16T03:19:48;40.65;;;16.63;;
43809;SDS011;29440;48.208;11.162;2022-12-16T03:24:49;37.22;;;16.05;;
43809;SDS011;29440;48.208;11.162;2022-12-16T03:27:16;40.30;;;16.13;;
43809;SDS011;29440;48.208;11.162;2022-12-16T03:32:41;33.15;;;14.43;;
43809;SDS011;29440;48.208;11.162;2022-12-16T03:37:53;35.25;;;15.25;;
43809;SDS011;29440;48.208;11.162;2022-12-16T03:40:21;38.75;;;15.60;;
43809;SDS011;29440;48.208;11.162;2022-12-16T03:42:48;36.30;;;15.30;;
43809;SDS011;29440;48.208;11.162;2022-12-16T03:45:17;43.38;;;16.33;;
43809;SDS011;29440;48.208;11.162;2022-12-16T03:47:55;43.28;;;16.00;;
43809;SDS011;29440;48.208;11.162;2022-12-16T03:50:24;48.88;;;17.65;;
43809;SDS011;29440;48.208;11.162;2022-12-16T03:52:56;40.78;;;16.45;;
43809;SDS011;29440;48.208;11.162;2022-12-16T03:55:22;46.50;;;18.20;;
43809;SDS011;29440;48.208;11.162;2022-12-16T03:57:48;43.50;;;17.00;;
43809;SDS011;29440;48.208;11.162;2022-12-16T04:00:13;45.67;;;17.88;;
43809;SDS011;29440;48.208;11.162;2022-12-16T04:02:42;41.33;;;16.02;;
43809;SDS011;29440;48.208;11.162;2022-12-16T04:05:08;39.08;;;16.55;;
43809;SDS011;29440;48.208;11.162;2022-12-16T04:07:34;45.55;;;18.00;;
43809;SDS011;29440;48.208;11.162;2022-12-16T04:10:00;37.03;;;15.98;;
43809;SDS011;29440;48.208;11.162;2022-12-16T04:12:26;41.03;;;17.45;;
43809;SDS011;29440;48.208;11.162;2022-12-16T04:15:21;41.92;;;15.85;;
43809;SDS011;29440;48.208;11.162;2022-12-16T04:20:55;33.40;;;14.68;;
43809;SDS011;29440;48.208;11.162;2022-12-16T04:23:42;38.53;;;15.20;;
43809;SDS011;29440;48.208;11.162;2022-12-16T04:26:33;42.87;;;17.03;;
43809;SDS011;29440;48.208;11.162;2022-12-16T04:29:18;45.25;;;16.90;;
43809;SDS011;29440;48.208;11.162;2022-12-16T04:31:44;34.85;;;14.15;;
43809;SDS011;29440;48.208;11.162;2022-12-16T04:34:09;31.88;;;13.63;;
43809;SDS011;29440;48.208;11.162;2022-12-16T04:36:57;36.30;;;15.10;;
43809;SDS011;29440;48.208;11.162;2022-12-16T04:39:43;36.60;;;14.68;;
43809;SDS011;29440;48.208;11.162;2022-12-16T04:42:28;36.33;;;15.52;;
43809;SDS011;29440;48.208;11.162;2022-12-16T04:45:15;30.95;;;13.60;;
43809;SDS011;29440;48.208;11.162;2022-12-16T04:48:00;41.05;;;14.98;;
43809;SDS011;29440;48.208;11.162;2022-12-16T04:50:45;37.15;;;15.85;;
43809;SDS011;29440;48.208;11.162;2022-12-16T04:53:29;37.53;;;14.88;;
43809;SDS011;29440;48.208;11.162;2022-12-16T04:56:13;41.08;;;16.98;;
43809;SDS011;29440;48.208;11.162;2022-12-16T04:58:57;45.35;;;16.77;;
43809;SDS011;29440;48.208;11.162;2022-12-16T05:01:42;41.58;;;16.50;;
43809;SDS011;29440;48.208;11.162;2022-12-16T05:04:27;39.03;;;16.05;;
43809;SDS011;29440;48.208;11.162;2022-12-16T05:07:11;36.75;;;15.15;;
43809;SDS011;29440;48.208;11.162;2022-12-16T05:09:55;39.10;;;15.65;;
43809;SDS011;29440;48.208;11.162;2022-12-16T05:12:39;42.78;;;16.83;;
43809;SDS011;29440;48.208;11.162;2022-12-16T05:15:23;46.40;;;17.30;;
43809;SDS011;29440;48.208;11.162;2022-12-16T05:18:08;46.65;;;16.58;;
43809;SDS011;29440;48.208;11.162;2022-12-16T05:20:54;44.88;;;17.73;;
43809;SDS011;29440;48.208;11.162;2022-12-16T05:23:40;45.63;;;17.08;;
43809;SDS011;29440;48.208;11.162;2022-12-16T05:26:25;44.65;;;16.90;;
43809;SDS011;29440;48.208;11.162;2022-12-16T05:29:09;46.17;;;18.42;;
43809;SDS011;29440;48.208;11.162;2022-12-16T05:34:38;42.65;;;16.27;;
43809;SDS011;29440;48.208;11.162;2022-12-16T05:37:22;44.60;;;17.25;;
43809;SDS011;29440;48.208;11.162;2022-12-16T05:40:09;39.65;;;17.90;;
43809;SDS011;29440;48.208;11.162;2022-12-16T05:42:54;51.90;;;17.92;;
43809;SDS011;29440;48.208;11.162;2022-12-16T05:45:39;41.58;;;17.00;;
43809;SDS011;29440;48.208;11.162;2022-12-16T05:48:23;48.70;;;17.45;;
43809;SDS011;29440;48.208;11.162;2022-12-16T05:51:08;55.00;;;19.83;;
43809;SDS011;29440;48.208;11.162;2022-12-16T05:53:52;47.08;;;18.85;;
43809;SDS011;29440;48.208;11.162;2022-12-16T05:56:36;50.00;;;19.98;;
43809;SDS011;29440;48.208;11.162;2022-12-16T05:59:21;46.85;;;18.70;;
43809;SDS011;29440;48.208;11.162;2022-12-16T06:02:05;48.65;;;19.85;;
43809;SDS011;29440;48.208;11.162;2022-12-16T06:04:49;51.40;;;19.95;;
43809;SDS011;29440;48.208;11.162;2022-12-16T06:07:33;49.85;;;19.70;;
43809;SDS011;29440;48.208;11.162;2022-12-16T06:10:17;52.95;;;20.15;;
43809;SDS011;29440;48.208;11.162;2022-12-16T06:13:03;48.92;;;19.38;;
43809;SDS011;29440;48.208;11.162;2022-12-16T06:15:47;48.05;;;18.40;;
43809;SDS011;29440;48.208;11.162;2022-12-16T06:18:31;50.92;;;18.58;;
43809;SDS011;29440;48.208;11.162;2022-12-16T06:23:59;40.93;;;17.07;;
43809;SDS011;29440;48.208;11.162;2022-12-16T06:29:28;43.73;;;17.23;;
43809;SDS011;29440;48.208;11.162;2022-12-16T06:32:12;52.33;;;20.08;;
43809;SDS011;29440;48.208;11.162;2022-12-16T06:34:57;51.30;;;20.60;;
43809;SDS011;29440;48.208;11.162;2022-12-16T06:37:41;56.92;;;21.23;;
43809;SDS011;29440;48.208;11.162;2022-12-16T06:40:29;47.75;;;19.58;;
43809;SDS011;29440;48.208;11.162;2022-12-16T06:43:13;46.30;;;19.13;;
43809;SDS011;29440;48.208;11.162;2022-12-16T06:45:57;50.10;;;19.80;;
43809;SDS011;29440;48.208;11.162;2022-12-16T06:48:41;61.17;;;21.02;;
43809;SDS011;29440;48.208;11.162;2022-12-16T06:54:10;46.65;;;19.50;;
43809;SDS011;29440;48.208;11.162;2022-12-16T06:59:38;43.10;;;18.63;;
43809;SDS011;29440;48.208;11.162;2022-12-16T07:02:23;48.92;;;20.17;;
43809;SDS011;29440;48.208;11.162;2022-12-16T07:05:08;54.92;;;20.58;;
43809;SDS011;29440;48.208;11.162;2022-12-16T07:07:52;47.97;;;20.13;;
43809;SDS011;29440;48.208;11.162;2022-12-16T07:10:36;45.63;;;19.55;;
43809;SDS011;29440;48.208;11.162;2022-12-16T07:13:20;56.90;;;20.85;;
43809;SDS011;29440;48.208;11.162;2022-12-16T07:16:05;48.15;;;20.23;;
43809;SDS011;29440;48.208;11.162;2022-12-16T07:18:49;55.20;;;22.08;;
43809;SDS011;29440;48.208;11.162;2022-12-16T07:21:34;51.67;;;21.52;;
43809;SDS011;29440;48.208;11.162;2022-12-16T07:24:18;52.72;;;20.85;;
43809;SDS011;29440;48.208;11.162;2022-12-16T07:27:02;49.50;;;20.15;;
43809;SDS011;29440;48.208;11.162;2022-12-16T07:29:47;49.58;;;19.77;;
43809;SDS011;29440;48.208;11.162;2022-12-16T07:32:31;51.40;;;19.55;;
43809;SDS011;29440;48.208;11.162;2022-12-16T07:35:15;47.88;;;19.58;;
43809;SDS011;29440;48.208;11.162;2022-12-16T07:38:02;50.05;;;19.65;;
43809;SDS011;29440;48.208;11.162;2022-12-16T07:40:46;48.30;;;18.73;;
43809;SDS011;29440;48.208;11.162;2022-12-16T07:43:31;43.97;;;17.55;;
43809;SDS011;29440;48.208;11.162;2022-12-16T07:46:16;47.83;;;19.23;;
43809;SDS011;29440;48.208;11.162;2022-12-16T07:49:00;46.25;;;18.10;;
43809;SDS011;29440;48.208;11.162;2022-12-16T07:51:47;51.65;;;19.55;;
43809;SDS011;29440;48.208;11.162;2022-12-16T07:54:31;48.70;;;19.05;;
43809;SDS011;29440;48.208;11.162;2022-12-16T07:57:15;50.65;;;20.17;;
43809;SDS011;29440;48.208;11.162;2022-12-16T07:59:59;47.53;;;18.70;;
43809;SDS011;29440;48.208;11.162;2022-12-16T08:02:43;45.28;;;19.23;;
43809;SDS011;29440;48.208;11.162;2022-12-16T08:05:28;49.55;;;19.10;;
43809;SDS011;29440;48.208;11.162;2022-12-16T08:08:12;48.45;;;20.27;;
43809;SDS011;29440;48.208;11.162;2022-12-16T08:10:57;46.88;;;19.17;;
43809;SDS011;29440;48.208;11.162;2022-12-16T08:13:41;50.95;;;19.85;;
43809;SDS011;29440;48.208;11.162;2022-12-16T08:16:26;45.00;;;18.05;;
43809;SDS011;29440;48.208;11.162;2022-12-16T08:19:10;47.35;;;18.52;;
43809;SDS011;29440;48.208;11.162;2022-12-16T08:21:55;50.50;;;19.63;;
43809;SDS011;29440;48.208;11.162;2022-12-16T08:24:39;42.40;;;18.00;;
43809;SDS011;29440;48.208;11.162;2022-12-16T08:27:23;53.55;;;19.85;;
43809;SDS011;29440;48.208;11.162;2022-12-16T08:30:07;57.58;;;22.63;;
43809;SDS011;29440;48.208;11.162;2022-12-16T08:32:51;46.28;;;19.33;;
43809;SDS011;29440;48.208;11.162;2022-12-16T08:35:35;43.13;;;19.30;;
43809;SDS011;29440;48.208;11.162;2022-12-16T08:38:20;46.50;;;18.67;;
43809;SDS011;29440;48.208;11.162;2022-12-16T08:41:04;47.83;;;17.83;;
43809;SDS011;29440;48.208;11.162;2022-12-16T08:43:48;50.85;;;20.67;;
43809;SDS011;29440;48.208;11.162;2022-12-16T08:49:17;42.83;;;18.17;;
43809;SDS011;29440;48.208;11.162;2022-12-16T08:52:01;50.75;;;18.05;;
43809;SDS011;29440;48.208;11.162;2022-12-16T08:54:45;42.38;;;18.80;;
43809;SDS011;29440;48.208;11.162;2022-12-16T08:57:30;43.80;;;18.52;;
43809;SDS011;29440;48.208;11.162;2022-12-16T09:00:14;39.65;;;17.48;;
43809;SDS011;29440;48.208;11.162;2022-12-16T09:02:59;43.95;;;18.98;;
43809;SDS011;29440;48.208;11.162;2022-12-16T09:05:43;46.35;;;18.70;;
43809;SDS011;29440;48.208;11.162;2022-12-16T09:08:28;43.40;;;18.25;;
43809;SDS011;29440;48.208;11.162;2022-12-16T09:11:13;45.45;;;18.73;;
43809;SDS011;29440;48.208;11.162;2022-12-16T09:13:57;46.13;;;19.13;;
43809;SDS011;29440;48.208;11.162;2022-12-16T09:16:41;40.80;;;16.58;;
43809;SDS011;29440;48.208;11.162;2022-12-16T09:19:26;39.28;;;17.25;;
43809;SDS011;29440;48.208;11.162;2022-12-16T09:22:10;42.35;;;17.40;;
43809;SDS011;29440;48.208;11.162;2022-12-16T09:24:54;44.10;;;18.13;;
43809;SDS011;29440;48.208;11.162;2022-12-16T09:27:38;43.63;;;18.40;;
43809;SDS011;29440;48.208;11.162;2022-12-16T09:30:22;43.42;;;18.48;;
43809;SDS011;29440;48.208;11.162;2022-12-16T09:33:06;40.55;;;16.23;;
43809;SDS011;29440;48.208;11.162;2022-12-16T09:35:50;44.03;;;17.58;;
43809;SDS011;29440;48.208;11.162;2022-12-16T09:38:34;40.97;;;17.90;;
43809;SDS011;29440;48.208;11.162;2022-12-16T09:41:27;41.38;;;17.05;;
43809;SDS011;29440;48.208;11.162;2022-12-16T09:50:12;40.60;;;18.10;;
43809;SDS011;29440;48.208;11.162;2022-12-16T09:53:02;39.78;;;17.42;;
43809;SDS011;29440;48.208;11.162;2022-12-16T09:55:49;46.22;;;19.33;;
43809;SDS011;29440;48.208;11.162;2022-12-16T09:58:36;37.78;;;17.25;;
43809;SDS011;29440;48.208;11.162;2022-12-16T10:01:35;44.10;;;18.90;;
43809;SDS011;29440;48.208;11.162;2022-12-16T10:04:20;44.72;;;18.27;;
43809;SDS011;29440;48.208;11.162;2022-12-16T10:07:05;40.63;;;17.83;;
43809;SDS011;29440;48.208;11.162;2022-12-16T10:25:16;43.92;;;18.02;;
43809;SDS011;29440;48.208;11.162;2022-12-16T10:30:56;43.72;;;18.08;;
43809;SDS011;29440;48.208;11.162;2022-12-16T10:33:46;41.35;;;17.88;;
43809;SDS011;29440;48.208;11.162;2022-12-16T10:36:34;37.53;;;16.38;;
43809;SDS011;29440;48.208;11.162;2022-12-16T10:39:35;43.60;;;17.75;;
43809;SDS011;29440;48.208;11.162;2022-12-16T10:45:16;42.72;;;17.10;;
43809;SDS011;29440;48.208;11.162;2022-12-16T10:48:04;45.67;;;20.40;;
43809;SDS011;29440;48.208;11.162;2022-12-16T10:50:48;38.85;;;17.08;;
43809;SDS011;29440;48.208;11.162;2022-12-16T10:53:32;40.25;;;16.77;;
43809;SDS011;29440;48.208;11.162;2022-12-16T10:56:41;39.72;;;16.40;;
43809;SDS011;29440;48.208;11.162;2022-12-16T10:59:38;42.08;;;18.42;;
43809;SDS011;29440;48.208;11.162;2022-12-16T11:02:24;41.35;;;16.88;;
43809;SDS011;29440;48.208;11.162;2022-12-16T11:05:28;39.67;;;17.40;;
43809;SDS011;29440;48.208;11.162;2022-12-16T11:08:23;37.05;;;16.83;;
43809;SDS011;29440;48.208;11.162;2022-12-16T11:11:17;46.80;;;19.70;;
43809;SDS011;29440;48.208;11.162;2022-12-16T11:14:30;37.75;;;16.27;;
43809;SDS011;29440;48.208;11.162;2022-12-16T11:17:19;37.30;;;15.50;;
43809;SDS011;29440;48.208;11.162;2022-12-16T11:23:20;45.05;;;18.77;;
43809;SDS011;29440;48.208;11.162;2022-12-16T11:26:11;40.65;;;17.50;;
43809;SDS011;29440;48.208;11.162;2022-12-16T11:29:03;42.30;;;16.70;;
43809;SDS011;29440;48.208;11.162;2022-12-16T11:31:50;38.75;;;16.17;;
43809;SDS011;29440;48.208;11.162;2022-12-16T11:34:40;35.67;;;16.55;;
43809;SDS011;29440;48.208;11.162;2022-12-16T11:37:27;34.50;;;15.32;;
43809;SDS011;29440;48.208;11.162;2022-12-16T11:40:14;36.65;;;15.77;;
43809;SDS011;29440;48.208;11.162;2022-12-16T11:43:04;38.50;;;15.30;;
43809;SDS011;29440;48.208;11.162;2022-12-16T11:45:49;33.25;;;14.10;;
43809;SDS011;29440;48.208;11.162;2022-12-16T11:48:46;34.30;;;15.07;;
43809;SDS011;29440;48.208;11.162;2022-12-16T11:51:51;35.03;;;15.50;;
43809;SDS011;29440;48.208;11.162;2022-12-16T11:54:44;25.25;;;12.05;;
43809;SDS011;29440;48.208;11.162;2022-12-16T11:57:43;36.38;;;14.80;;
43809;SDS011;29440;48.208;11.162;2022-12-16T12:00:44;30.60;;;13.52;;
43809;SDS011;29440;48.208;11.162;2022-12-16T12:03:39;34.67;;;16.25;;
43809;SDS011;29440;48.208;11.162;2022-12-16T12:06:36;29.33;;;13.63;;
43809;SDS011;29440;48.208;11.162;2022-12-16T12:09:48;37.80;;;15.38;;
43809;SDS011;29440;48.208;11.162;2022-12-16T12:12:46;33.90;;;14.80;;
43809;SDS011;29440;48.208;11.162;2022-12-16T12:15:54;33.83;;;15.18;;
43809;SDS011;29440;48.208;11.162;2022-12-16T12:18:59;31.63;;;15.30;;
43809;SDS011;29440;48.208;11.162;2022-12-16T12:21:58;33.38;;;14.15;;
43809;SDS011;29440;48.208;11.162;2022-12-16T12:24:52;33.85;;;15.98;;
43809;SDS011;29440;48.208;11.162;2022-12-16T12:27:53;32.67;;;14.98;;
43809;SDS011;29440;48.208;11.162;2022-12-16T12:31:11;35.17;;;14.63;;
43809;SDS011;29440;48.208;11.162;2022-12-16T12:42:58;30.95;;;14.73;;
43809;SDS011;29440;48.208;11.162;2022-12-16T12:52:34;32.33;;;14.52;;
43809;SDS011;29440;48.208;11.162;2022-12-16T12:55:43;28.42;;;12.80;;
43809;SDS011;29440;48.208;11.162;2022-12-16T12:58:54;32.30;;;13.88;;
43809;SDS011;29440;48.208;11.162;2022-12-16T13:01:45;33.40;;;13.68;;
43809;SDS011;29440;48.208;11.162;2022-12-16T13:04:30;29.90;;;13.48;;
43809;SDS011;29440;48.208;11.162;2022-12-16T13:07:16;35.15;;;14.52;;
43809;SDS011;29440;48.208;11.162;2022-12-16T13:13:19;32.05;;;13.93;;
43809;SDS011;29440;48.208;11.162;2022-12-16T13:19:41;32.47;;;14.52;;
43809;SDS011;29440;48.208;11.162;2022-12-16T13:22:30;34.35;;;14.57;;
43809;SDS011;29440;48.208;11.162;2022-12-16T13:25:51;33.63;;;15.07;;
43809;SDS011;29440;48.208;11.162;2022-12-16T13:28:35;30.88;;;14.57;;
43809;SDS011;29440;48.208;11.162;2022-12-16T13:31:22;35.08;;;14.85;;
43809;SDS011;29440;48.208;11.162;2022-12-16T13:34:19;30.75;;;13.93;;
43809;SDS011;29440;48.208;11.162;2022-12-16T13:37:17;31.60;;;13.52;;
43809;SDS011;29440;48.208;11.162;2022-12-16T13:40:16;27.55;;;12.48;;
43809;SDS011;29440;48.208;11.162;2022-12-16T13:43:03;29.70;;;12.50;;
43809;SDS011;29440;48.208;11.162;2022-12-16T13:46:37;29.13;;;13.45;;
43809;SDS011;29440;48.208;11.162;2022-12-16T13:55:47;32.70;;;12.52;;
43809;SDS011;29440;48.208;11.162;2022-12-16T13:58:41;27.65;;;12.18;;
43809;SDS011;29440;48.208;11.162;2022-12-16T14:01:38;28.65;;;12.73;;
43809;SDS011;29440;48.208;11.162;2022-12-16T14:04:28;29.73;;;11.60;;
43809;SDS011;29440;48.208;11.162;2022-12-16T14:07:15;23.90;;;11.75;;
43809;SDS011;29440;48.208;11.162;2022-12-16T14:10:01;23.38;;;11.10;;
43809;SDS011;29440;48.208;11.162;2022-12-16T14:15:56;27.65;;;12.15;;
43809;SDS011;29440;48.208;11.162;2022-12-16T14:21:53;25.80;;;12.13;;
43809;SDS011;29440;48.208;11.162;2022-12-16T14:24:51;30.00;;;11.77;;
43809;SDS011;29440;48.208;11.162;2022-12-16T14:27:36;31.20;;;12.20;;
43809;SDS011;29440;48.208;11.162;2022-12-16T14:30:24;26.63;;;12.27;;
43809;SDS011;29440;48.208;11.162;2022-12-16T14:33:22;29.92;;;13.02;;
43809;SDS011;29440;48.208;11.162;2022-12-16T14:36:17;28.15;;;12.25;;
43809;SDS011;29440;48.208;11.162;2022-12-16T14:39:10;26.95;;;11.73;;
43809;SDS011;29440;48.208;11.162;2022-12-16T14:41:56;31.90;;;13.80;;
43809;SDS011;29440;48.208;11.162;2022-12-16T14:44:43;25.90;;;11.88;;
43809;SDS011;29440;48.208;11.162;2022-12-16T14:47:35;28.38;;;12.60;;
43809;SDS011;29440;48.208;11.162;2022-12-16T14:50:29;32.08;;;12.32;;
43809;SDS011;29440;48.208;11.162;2022-12-16T14:56:16;28.13;;;13.35;;
43809;SDS011;29440;48.208;11.162;2022-12-16T14:59:13;29.48;;;13.05;;
43809;SDS011;29440;48.208;11.162;2022-12-16T15:01:59;27.90;;;12.23;;
43809;SDS011;29440;48.208;11.162;2022-12-16T15:05:15;33.67;;;12.60;;
43809;SDS011;29440;48.208;11.162;2022-12-16T15:08:01;27.80;;;12.73;;
43809;SDS011;29440;48.208;11.162;2022-12-16T15:10:45;31.95;;;12.88;;
43809;SDS011;29440;48.208;11.162;2022-12-16T15:13:30;31.92;;;13.10;;
43809;SDS011;29440;48.208;11.162;2022-12-16T15:16:17;32.90;;;13.77;;
43809;SDS011;29440;48.208;11.162;2022-12-16T15:19:15;34.95;;;14.82;;
43809;SDS011;29440;48.208;11.162;2022-12-16T15:22:02;35.13;;;14.18;;
43809;SDS011;29440;48.208;11.162;2022-12-16T15:24:47;32.63;;;13.30;;
43809;SDS011;29440;48.208;11.162;2022-12-16T15:27:38;35.50;;;15.30;;
43809;SDS011;29440;48.208;11.162;2022-12-16T15:33:35;29.30;;;13.10;;
43809;SDS011;29440;48.208;11.162;2022-12-16T15:36:28;27.55;;;13.07;;
43809;SDS011;29440;48.208;11.162;2022-12-16T15:42:04;35.42;;;15.55;;
43809;SDS011;29440;48.208;11.162;2022-12-16T15:44:59;27.23;;;12.65;;
43809;SDS011;29440;48.208;11.162;2022-12-16T15:47:43;34.28;;;13.77;;
43809;SDS011;29440;48.208;11.162;2022-12-16T15:50:33;25.77;;;11.85;;
43809;SDS011;29440;48.208;11.162;2022-12-16T15:59:14;29.98;;;12.73;;
43809;SDS011;29440;48.208;11.162;2022-12-16T16:02:17;31.30;;;13.77;;
43809;SDS011;29440;48.208;11.162;2022-12-16T16:05:10;31.33;;;13.50;;
43809;SDS011;29440;48.208;11.162;2022-12-16T16:08:01;33.70;;;13.23;;
43809;SDS011;29440;48.208;11.162;2022-12-16T16:10:45;29.88;;;12.25;;
43809;SDS011;29440;48.208;11.162;2022-12-16T16:13:33;30.65;;;13.93;;
43809;SDS011;29440;48.208;11.162;2022-12-16T16:16:18;25.60;;;11.75;;
43809;SDS011;29440;48.208;11.162;2022-12-16T16:19:02;31.58;;;12.93;;
43809;SDS011;29440;48.208;11.162;2022-12-16T16:21:46;30.25;;;13.32;;
43809;SDS011;29440;48.208;11.162;2022-12-16T16:24:30;29.85;;;12.32;;
43809;SDS011;29440;48.208;11.162;2022-12-16T16:27:15;33.20;;;13.77;;
43809;SDS011;29440;48.208;11.162;2022-12-16T16:30:01;32.22;;;13.93;;
43809;SDS011;29440;48.208;11.162;2022-12-16T16:32:46;26.77;;;13.30;;
43809;SDS011;29440;48.208;11.162;2022-12-16T16:35:30;29.13;;;12.73;;
43809;SDS011;29440;48.208;11.162;2022-12-16T16:38:27;33.28;;;12.70;;
43809;SDS011;29440;48.208;11.162;2022-12-16T16:41:14;26.23;;;10.98;;
43809;SDS011;29440;48.208;11.162;2022-12-16T16:43:59;31.20;;;12.65;;
43809;SDS011;29440;48.208;11.162;2022-12-16T16:46:43;30.33;;;13.00;;
43809;SDS011;29440;48.208;11.162;2022-12-16T16:49:32;40.03;;;14.45;;
43809;SDS011;29440;48.208;11.162;2022-12-16T16:52:24;35.05;;;12.52;;
43809;SDS011;29440;48.208;11.162;2022-12-16T16:58:13;31.60;;;13.80;;
43809;SDS011;29440;48.208;11.162;2022-12-16T17:01:11;30.55;;;12.48;;
43809;SDS011;29440;48.208;11.162;2022-12-16T17:03:56;26.45;;;11.75;;
43809;SDS011;29440;48.208;11.162;2022-12-16T17:06:40;32.28;;;13.43;;
43809;SDS011;29440;48.208;11.162;2022-12-16T17:09:24;31.92;;;13.32;;
43809;SDS011;29440;48.208;11.162;2022-12-16T17:17:59;28.90;;;13.88;;
43809;SDS011;29440;48.208;11.162;2022-12-16T17:23:28;35.55;;;12.60;;
43809;SDS011;29440;48.208;11.162;2022-12-16T17:26:12;30.67;;;12.23;;
43809;SDS011;29440;48.208;11.162;2022-12-16T17:28:56;34.65;;;15.05;;
43809;SDS011;29440;48.208;11.162;2022-12-16T17:31:40;41.72;;;17.17;;
43809;SDS011;29440;48.208;11.162;2022-12-16T17:34:24;59.15;;;20.98;;
43809;SDS011;29440;48.208;11.162;2022-12-16T17:37:08;104.05;;;36.78;;
43809;SDS011;29440;48.208;11.162;2022-12-16T17:39:52;58.35;;;23.70;;
43809;SDS011;29440;48.208;11.162;2022-12-16T17:42:37;40.55;;;19.35;;
43809;SDS011;29440;48.208;11.162;2022-12-16T17:45:21;35.22;;;15.57;;
43809;SDS011;29440;48.208;11.162;2022-12-16T17:48:05;33.45;;;15.70;;
43809;SDS011;29440;48.208;11.162;2022-12-16T17:50:49;37.08;;;19.00;;
43809;SDS011;29440;48.208;11.162;2022-12-16T17:53:33;36.97;;;17.10;;
43809;SDS011;29440;48.208;11.162;2022-12-16T17:56:17;33.30;;;15.05;;
43809;SDS011;29440;48.208;11.162;2022-12-16T18:01:48;36.47;;;14.75;;
43809;SDS011;29440;48.208;11.162;2022-12-16T18:07:31;35.85;;;12.63;;
43809;SDS011;29440;48.208;11.162;2022-12-16T18:10:20;35.13;;;14.95;;